aviador You're here:

KRST Decoded Metar

ROCHESTER in MN, USA
Report Time2018-05-27 00:54:00
UTC Time2018-05-27 01:05:44
Flight Rules vfr VFR
Wind110° at 04 kt
W.Decomp.*RWY 13: 3.7 kt HW 1.4 kt LCW
RWY 02: 0.1 kt HW 4.0 kt RCW
W.Rank110° ranks 28
Current wind is below 110° avg. (8.5)
Visibility9999 m
Phenomena:N/A
Clouds:N/A
Expected CloudBase > 4,800 ft AGL from Temp-Dew spread
CeilingNone
Temp29°C (ISA +17)
Dew Point17°C (48% RH)
Heat Index29.4°C
QNH1007 hPa
Density Alt3,691 ft
Elevation1,322 ft
Report Wrong Elevation
Raw Report
KRST 270054Z 11004KT 10SM CLR 29/17 A2974 RMK AO2 SLP061
T02940167=

Extra information for KRST:More info

Metar Taf Metar & Taf Last 4 Metars F.Rules Stats Wind Profile Meteogram Temp Stats Airport Information Weather charts Add Link Nearby VenuesMetar ALERT Operation Metar Decoded Social comments

AIRNAV info for KRST